sensor_id;sensor_type;location;lat;lon;timestamp;pressure;altitude;pressure_sealevel;temperature;humidity
46129;BME280;31860;45.186;5.790;2023-12-20T00:01:38;99815.31;;;8.68;100.00
46129;BME280;31860;45.186;5.790;2023-12-20T00:04:03;99811.78;;;8.66;100.00
46129;BME280;31860;45.186;5.790;2023-12-20T00:06:29;99812.59;;;8.63;100.00
46129;BME280;31860;45.186;5.790;2023-12-20T00:08:55;99804.78;;;8.62;100.00
46129;BME280;31860;45.186;5.790;2023-12-20T00:11:20;99793.44;;;8.58;100.00
46129;BME280;31860;45.186;5.790;2023-12-20T00:13:45;99784.72;;;8.56;100.00
46129;BME280;31860;45.186;5.790;2023-12-20T00:16:11;99806.47;;;8.60;100.00
46129;BME280;31860;45.186;5.790;2023-12-20T00:18:36;99818.78;;;8.67;100.00
46129;BME280;31860;45.186;5.790;2023-12-20T00:21:02;99822.28;;;8.69;100.00
46129;BME280;31860;45.186;5.790;2023-12-20T00:23:27;99830.13;;;8.71;100.00
46129;BME280;31860;45.186;5.790;2023-12-20T00:25:52;99829.22;;;8.70;100.00
46129;BME280;31860;45.186;5.790;2023-12-20T00:28:18;99834.47;;;8.73;100.00
46129;BME280;31860;45.186;5.790;2023-12-20T00:30:43;99833.56;;;8.70;100.00
46129;BME280;31860;45.186;5.790;2023-12-20T00:33:09;99827.38;;;8.63;100.00
46129;BME280;31860;45.186;5.790;2023-12-20T00:35:34;99828.22;;;8.63;100.00
46129;BME280;31860;45.186;5.790;2023-12-20T00:37:59;99814.38;;;8.65;100.00
46129;BME280;31860;45.186;5.790;2023-12-20T00:40:25;99814.41;;;8.66;100.00
46129;BME280;31860;45.186;5.790;2023-12-20T00:42:50;99812.69;;;8.68;100.00
46129;BME280;31860;45.186;5.790;2023-12-20T00:45:16;99805.78;;;8.69;100.00
46129;BME280;31860;45.186;5.790;2023-12-20T00:47:41;99807.50;;;8.68;100.00
46129;BME280;31860;45.186;5.790;2023-12-20T00:50:07;99803.22;;;8.72;100.00
46129;BME280;31860;45.186;5.790;2023-12-20T00:52:32;99803.16;;;8.67;100.00
46129;BME280;31860;45.186;5.790;2023-12-20T00:54:58;99804.88;;;8.68;100.00
46129;BME280;31860;45.186;5.790;2023-12-20T00:57:23;99799.63;;;8.65;100.00
46129;BME280;31860;45.186;5.790;2023-12-20T00:59:49;99800.44;;;8.61;100.00
46129;BME280;31860;45.186;5.790;2023-12-20T01:02:14;99797.81;;;8.59;100.00
46129;BME280;31860;45.186;5.790;2023-12-20T01:04:39;99797.75;;;8.56;100.00
46129;BME280;31860;45.186;5.790;2023-12-20T01:07:05;99800.41;;;8.59;100.00
46129;BME280;31860;45.186;5.790;2023-12-20T01:09:30;99790.84;;;8.60;100.00
46129;BME280;31860;45.186;5.790;2023-12-20T01:11:55;99796.97;;;8.62;100.00
46129;BME280;31860;45.186;5.790;2023-12-20T01:14:21;99796.06;;;8.60;100.00
46129;BME280;31860;45.186;5.790;2023-12-20T01:16:46;99807.31;;;8.57;100.00
46129;BME280;31860;45.186;5.790;2023-12-20T01:19:12;99802.97;;;8.58;100.00
46129;BME280;31860;45.186;5.790;2023-12-20T01:21:39;99808.28;;;8.64;100.00
46129;BME280;31860;45.186;5.790;2023-12-20T01:24:04;99811.88;;;8.69;100.00
46129;BME280;31860;45.186;5.790;2023-12-20T01:26:29;99828.38;;;8.71;100.00
46129;BME280;31860;45.186;5.790;2023-12-20T01:28:54;99832.75;;;8.72;100.00
46129;BME280;31860;45.186;5.790;2023-12-20T01:31:20;99831.06;;;8.76;100.00
46129;BME280;31860;45.186;5.790;2023-12-20T01:33:45;99826.75;;;8.78;100.00
46129;BME280;31860;45.186;5.790;2023-12-20T01:36:11;99820.66;;;8.77;100.00
46129;BME280;31860;45.186;5.790;2023-12-20T01:38:36;99831.94;;;8.75;100.00
46129;BME280;31860;45.186;5.790;2023-12-20T01:41:02;99828.38;;;8.71;100.00
46129;BME280;31860;45.186;5.790;2023-12-20T01:43:27;99830.09;;;8.69;100.00
46129;BME280;31860;45.186;5.790;2023-12-20T01:45:52;99823.94;;;8.66;100.00
46129;BME280;31860;45.186;5.790;2023-12-20T01:48:19;99823.94;;;8.66;100.00
46129;BME280;31860;45.186;5.790;2023-12-20T01:50:45;99834.41;;;8.67;100.00
46129;BME280;31860;45.186;5.790;2023-12-20T01:53:12;99834.41;;;8.67;100.00
46129;BME280;31860;45.186;5.790;2023-12-20T01:55:40;99830.03;;;8.68;100.00
46129;BME280;31860;45.186;5.790;2023-12-20T01:58:07;99821.41;;;8.69;100.00
46129;BME280;31860;45.186;5.790;2023-12-20T02:00:34;99824.00;;;8.69;100.00
46129;BME280;31860;45.186;5.790;2023-12-20T02:03:03;99825.69;;;8.65;100.00
46129;BME280;31860;45.186;5.790;2023-12-20T02:05:30;99829.13;;;8.66;100.00
46129;BME280;31860;45.186;5.790;2023-12-20T02:07:56;99831.81;;;8.69;100.00
46129;BME280;31860;45.186;5.790;2023-12-20T02:10:21;99819.72;;;8.72;100.00
46129;BME280;31860;45.186;5.790;2023-12-20T02:12:47;99821.50;;;8.75;100.00
46129;BME280;31860;45.186;5.790;2023-12-20T02:15:12;99815.44;;;8.76;100.00
46129;BME280;31860;45.186;5.790;2023-12-20T02:17:38;99816.31;;;8.75;100.00
46129;BME280;31860;45.186;5.790;2023-12-20T02:20:05;99809.34;;;8.75;100.00
46129;BME280;31860;45.186;5.790;2023-12-20T02:22:31;99803.31;;;8.78;100.00
46129;BME280;31860;45.186;5.790;2023-12-20T02:24:56;99796.44;;;8.81;100.00
46129;BME280;31860;45.186;5.790;2023-12-20T02:27:23;99798.16;;;8.81;100.00
46129;BME280;31860;45.186;5.790;2023-12-20T02:29:49;99797.28;;;8.80;100.00
46129;BME280;31860;45.186;5.790;2023-12-20T02:32:15;99788.63;;;8.81;100.00
46129;BME280;31860;45.186;5.790;2023-12-20T02:34:41;99786.88;;;8.80;100.00
46129;BME280;31860;45.186;5.790;2023-12-20T02:37:07;99780.78;;;8.80;100.00
46129;BME280;31860;45.186;5.790;2023-12-20T02:39:32;99772.06;;;8.78;100.00
46129;BME280;31860;45.186;5.790;2023-12-20T02:41:58;99772.84;;;8.72;100.00
46129;BME280;31860;45.186;5.790;2023-12-20T02:44:24;99761.63;;;8.75;100.00
46129;BME280;31860;45.186;5.790;2023-12-20T02:46:49;99752.00;;;8.71;100.00
46129;BME280;31860;45.186;5.790;2023-12-20T02:49:15;99746.00;;;8.75;100.00
46129;BME280;31860;45.186;5.790;2023-12-20T02:51:40;99747.75;;;8.77;100.00
46129;BME280;31860;45.186;5.790;2023-12-20T02:54:06;99744.31;;;8.80;100.00
46129;BME280;31860;45.186;5.790;2023-12-20T02:56:34;99747.81;;;8.80;100.00
46129;BME280;31860;45.186;5.790;2023-12-20T02:58:59;99748.72;;;8.84;100.00
46129;BME280;31860;45.186;5.790;2023-12-20T03:01:26;99752.16;;;8.83;100.00
46129;BME280;31860;45.186;5.790;2023-12-20T03:03:51;99743.53;;;8.84;100.00
46129;BME280;31860;45.186;5.790;2023-12-20T03:06:18;99752.25;;;8.87;100.00
46129;BME280;31860;45.186;5.790;2023-12-20T03:08:44;99745.34;;;8.89;100.00
46129;BME280;31860;45.186;5.790;2023-12-20T03:11:09;99739.34;;;8.93;100.00
46129;BME280;31860;45.186;5.790;2023-12-20T03:13:34;99742.75;;;8.91;100.00
46129;BME280;31860;45.186;5.790;2023-12-20T03:16:00;99745.38;;;8.92;100.00
46129;BME280;31860;45.186;5.790;2023-12-20T03:18:26;99737.53;;;8.89;100.00
46129;BME280;31860;45.186;5.790;2023-12-20T03:20:53;99734.84;;;8.85;100.00
46129;BME280;31860;45.186;5.790;2023-12-20T03:23:19;99734.75;;;8.79;100.00
46129;BME280;31860;45.186;5.790;2023-12-20T03:25:44;99743.44;;;8.79;100.00
46129;BME280;31860;45.186;5.790;2023-12-20T03:28:09;99732.97;;;8.76;100.00
46129;BME280;31860;45.186;5.790;2023-12-20T03:30:35;99721.78;;;8.80;100.00
46129;BME280;31860;45.186;5.790;2023-12-20T03:33:00;99718.38;;;8.84;100.00
46129;BME280;31860;45.186;5.790;2023-12-20T03:35:25;99708.88;;;8.89;100.00
46129;BME280;31860;45.186;5.790;2023-12-20T03:37:51;99712.38;;;8.91;100.00
46129;BME280;31860;45.186;5.790;2023-12-20T03:40:16;99720.22;;;8.94;100.00
46129;BME280;31860;45.186;5.790;2023-12-20T03:42:42;99714.19;;;8.95;100.00
46129;BME280;31860;45.186;5.790;2023-12-20T03:45:08;99719.34;;;8.94;100.00
46129;BME280;31860;45.186;5.790;2023-12-20T03:47:33;99725.44;;;8.94;100.00
46129;BME280;31860;45.186;5.790;2023-12-20T03:49:58;99717.63;;;8.94;100.00
46129;BME280;31860;45.186;5.790;2023-12-20T03:52:24;99723.72;;;8.93;100.00
46129;BME280;31860;45.186;5.790;2023-12-20T03:54:49;99717.63;;;8.96;100.00
46129;BME280;31860;45.186;5.790;2023-12-20T03:57:14;99705.38;;;8.89;100.00
46129;BME280;31860;45.186;5.790;2023-12-20T03:59:40;99712.28;;;8.84;100.00
46129;BME280;31860;45.186;5.790;2023-12-20T04:02:05;99707.94;;;8.84;100.00
46129;BME280;31860;45.186;5.790;2023-12-20T04:04:31;99700.09;;;8.83;100.00
46129;BME280;31860;45.186;5.790;2023-12-20T04:06:56;99707.06;;;8.84;100.00
46129;BME280;31860;45.186;5.790;2023-12-20T04:09:22;99712.25;;;8.82;100.00
46129;BME280;31860;45.186;5.790;2023-12-20T04:11:47;99707.88;;;8.80;100.00
46129;BME280;31860;45.186;5.790;2023-12-20T04:14:12;99705.25;;;8.80;100.00
46129;BME280;31860;45.186;5.790;2023-12-20T04:16:38;99703.50;;;8.79;100.00
46129;BME280;31860;45.186;5.790;2023-12-20T04:19:04;99702.66;;;8.80;100.00
46129;BME280;31860;45.186;5.790;2023-12-20T04:21:29;99700.00;;;8.77;100.00
46129;BME280;31860;45.186;5.790;2023-12-20T04:23:54;99689.66;;;8.83;100.00
46129;BME280;31860;45.186;5.790;2023-12-20T04:26:20;99680.09;;;8.80;100.00
46129;BME280;31860;45.186;5.790;2023-12-20T04:28:45;99680.13;;;8.82;100.00
46129;BME280;31860;45.186;5.790;2023-12-20T04:31:10;99676.59;;;8.80;100.00
46129;BME280;31860;45.186;5.790;2023-12-20T04:33:36;99688.72;;;8.76;100.00
46129;BME280;31860;45.186;5.790;2023-12-20T04:36:01;99681.75;;;8.75;100.00
46129;BME280;31860;45.186;5.790;2023-12-20T04:38:27;99692.19;;;8.77;100.00
46129;BME280;31860;45.186;5.790;2023-12-20T04:40:52;99687.91;;;8.80;100.00
46129;BME280;31860;45.186;5.790;2023-12-20T04:43:17;99694.03;;;8.82;100.00
46129;BME280;31860;45.186;5.790;2023-12-20T04:45:43;99687.13;;;8.87;100.00
46129;BME280;31860;45.186;5.790;2023-12-20T04:48:08;99693.25;;;8.89;100.00
46129;BME280;31860;45.186;5.790;2023-12-20T04:50:34;99688.03;;;8.88;100.00
46129;BME280;31860;45.186;5.790;2023-12-20T04:52:59;99695.78;;;8.85;100.00
46129;BME280;31860;45.186;5.790;2023-12-20T04:55:25;99694.88;;;8.83;100.00
46129;BME280;31860;45.186;5.790;2023-12-20T04:57:50;99696.56;;;8.81;100.00
46129;BME280;31860;45.186;5.790;2023-12-20T05:00:16;99701.78;;;8.79;100.00
46129;BME280;31860;45.186;5.790;2023-12-20T05:02:41;99707.00;;;8.81;100.00
46129;BME280;31860;45.186;5.790;2023-12-20T05:05:07;99696.56;;;8.81;100.00
46129;BME280;31860;45.186;5.790;2023-12-20T05:07:32;99685.34;;;8.83;100.00
46129;BME280;31860;45.186;5.790;2023-12-20T05:09:58;99681.00;;;8.84;100.00
46129;BME280;31860;45.186;5.790;2023-12-20T05:12:24;99672.31;;;8.82;100.00
46129;BME280;31860;45.186;5.790;2023-12-20T05:14:49;99685.31;;;8.82;100.00
46129;BME280;31860;45.186;5.790;2023-12-20T05:17:15;99681.84;;;8.81;100.00
46129;BME280;31860;45.186;5.790;2023-12-20T05:19:40;99683.53;;;8.79;100.00
46129;BME280;31860;45.186;5.790;2023-12-20T05:22:05;99678.34;;;8.79;100.00
46129;BME280;31860;45.186;5.790;2023-12-20T05:24:31;99674.81;;;8.77;100.00
46129;BME280;31860;45.186;5.790;2023-12-20T05:26:56;99676.59;;;8.78;100.00
46129;BME280;31860;45.186;5.790;2023-12-20T05:29:21;99682.63;;;8.77;100.00
46129;BME280;31860;45.186;5.790;2023-12-20T05:31:47;99685.19;;;8.73;100.00
46129;BME280;31860;45.186;5.790;2023-12-20T05:34:12;99682.59;;;8.74;100.00
46129;BME280;31860;45.186;5.790;2023-12-20T05:36:37;99673.94;;;8.75;100.00
46129;BME280;31860;45.186;5.790;2023-12-20T05:39:04;99675.59;;;8.69;100.00
46129;BME280;31860;45.186;5.790;2023-12-20T05:41:30;99669.50;;;8.70;100.00
46129;BME280;31860;45.186;5.790;2023-12-20T05:43:56;99679.91;;;8.68;100.00
46129;BME280;31860;45.186;5.790;2023-12-20T05:46:23;99679.03;;;8.68;100.00
46129;BME280;31860;45.186;5.790;2023-12-20T05:48:49;99674.69;;;8.67;100.00
46129;BME280;31860;45.186;5.790;2023-12-20T05:51:14;99676.41;;;8.68;100.00
46129;BME280;31860;45.186;5.790;2023-12-20T05:53:40;99679.03;;;8.68;100.00
46129;BME280;31860;45.186;5.790;2023-12-20T05:56:05;99673.91;;;8.72;100.00
46129;BME280;31860;45.186;5.790;2023-12-20T05:58:34;99680.00;;;8.73;100.00
46129;BME280;31860;45.186;5.790;2023-12-20T06:01:00;99680.00;;;8.73;100.00
46129;BME280;31860;45.186;5.790;2023-12-20T06:03:25;99691.25;;;8.73;100.00
46129;BME280;31860;45.186;5.790;2023-12-20T06:05:51;99697.41;;;8.77;100.00
46129;BME280;31860;45.186;5.790;2023-12-20T06:08:16;99694.81;;;8.78;100.00
46129;BME280;31860;45.186;5.790;2023-12-20T06:10:41;99685.25;;;8.77;100.00
46129;BME280;31860;45.186;5.790;2023-12-20T06:13:07;99692.22;;;8.78;100.00
46129;BME280;31860;45.186;5.790;2023-12-20T06:15:32;99690.44;;;8.77;100.00
46129;BME280;31860;45.186;5.790;2023-12-20T06:17:58;99693.97;;;8.79;100.00
46129;BME280;31860;45.186;5.790;2023-12-20T06:20:23;99689.63;;;8.80;100.00
46129;BME280;31860;45.186;5.790;2023-12-20T06:22:48;99694.03;;;8.82;100.00
46129;BME280;31860;45.186;5.790;2023-12-20T06:25:14;99691.44;;;8.84;100.00
46129;BME280;31860;45.186;5.790;2023-12-20T06:27:39;99685.34;;;8.83;100.00
46129;BME280;31860;45.186;5.790;2023-12-20T06:30:07;99687.13;;;8.84;100.00
46129;BME280;31860;45.186;5.790;2023-12-20T06:32:34;99692.25;;;8.81;100.00
46129;BME280;31860;45.186;5.790;2023-12-20T06:34:59;99675.81;;;8.84;100.00
46129;BME280;31860;45.186;5.790;2023-12-20T06:37:25;99675.81;;;8.85;100.00
46129;BME280;31860;45.186;5.790;2023-12-20T06:39:50;99674.09;;;8.84;100.00
46129;BME280;31860;45.186;5.790;2023-12-20T06:42:16;99674.91;;;8.80;100.00
46129;BME280;31860;45.186;5.790;2023-12-20T06:44:41;99673.13;;;8.81;100.00
46129;BME280;31860;45.186;5.790;2023-12-20T06:47:07;99680.94;;;8.81;100.00
46129;BME280;31860;45.186;5.790;2023-12-20T06:49:32;99675.72;;;8.78;100.00
46129;BME280;31860;45.186;5.790;2023-12-20T06:51:57;99676.59;;;8.80;100.00
46129;BME280;31860;45.186;5.790;2023-12-20T06:54:23;99675.72;;;8.79;100.00
46129;BME280;31860;45.186;5.790;2023-12-20T06:56:48;99679.13;;;8.75;100.00
46129;BME280;31860;45.186;5.790;2023-12-20T06:59:13;99684.34;;;8.75;100.00
46129;BME280;31860;45.186;5.790;2023-12-20T07:01:39;99681.75;;;8.75;100.00
46129;BME280;31860;45.186;5.790;2023-12-20T07:04:04;99676.59;;;8.77;100.00
46129;BME280;31860;45.186;5.790;2023-12-20T07:06:30;99684.38;;;8.77;100.00
46129;BME280;31860;45.186;5.790;2023-12-20T07:08:55;99686.94;;;8.75;100.00
46129;BME280;31860;45.186;5.790;2023-12-20T07:11:20;99693.03;;;8.76;100.00
46129;BME280;31860;45.186;5.790;2023-12-20T07:13:46;99692.19;;;8.77;100.00
46129;BME280;31860;45.186;5.790;2023-12-20T07:16:11;99704.34;;;8.78;100.00
46129;BME280;31860;45.186;5.790;2023-12-20T07:18:38;99704.34;;;8.78;100.00
46129;BME280;31860;45.186;5.790;2023-12-20T07:21:03;99706.06;;;8.77;100.00
46129;BME280;31860;45.186;5.790;2023-12-20T07:23:29;99710.47;;;8.80;100.00
46129;BME280;31860;45.186;5.790;2023-12-20T07:25:54;99700.97;;;8.83;100.00
46129;BME280;31860;45.186;5.790;2023-12-20T07:28:20;99698.34;;;8.82;100.00
46129;BME280;31860;45.186;5.790;2023-12-20T07:30:45;99709.66;;;8.84;100.00
46129;BME280;31860;45.186;5.790;2023-12-20T07:33:11;99698.38;;;8.85;100.00
46129;BME280;31860;45.186;5.790;2023-12-20T07:35:37;99700.13;;;8.84;100.00
46129;BME280;31860;45.186;5.790;2023-12-20T07:38:03;99706.25;;;8.88;100.00
46129;BME280;31860;45.186;5.790;2023-12-20T07:40:28;99703.59;;;8.85;100.00
46129;BME280;31860;45.186;5.790;2023-12-20T07:42:54;99707.94;;;8.84;100.00
46129;BME280;31860;45.186;5.790;2023-12-20T07:45:19;99706.19;;;8.83;100.00
46129;BME280;31860;45.186;5.790;2023-12-20T07:47:45;99706.22;;;8.86;100.00
46129;BME280;31860;45.186;5.790;2023-12-20T07:50:10;99707.09;;;8.88;100.00
46129;BME280;31860;45.186;5.790;2023-12-20T07:52:35;99707.09;;;8.88;100.00
46129;BME280;31860;45.186;5.790;2023-12-20T07:55:01;99713.22;;;8.90;100.00
46129;BME280;31860;45.186;5.790;2023-12-20T07:57:29;99710.63;;;8.90;100.00
46129;BME280;31860;45.186;5.790;2023-12-20T07:59:54;99725.41;;;8.90;100.00
46129;BME280;31860;45.186;5.790;2023-12-20T08:02:20;99725.34;;;8.88;100.00
46129;BME280;31860;45.186;5.790;2023-12-20T08:04:45;99728.84;;;8.90;100.00
46129;BME280;31860;45.186;5.790;2023-12-20T08:07:10;99730.63;;;8.91;100.00
46129;BME280;31860;45.186;5.790;2023-12-20T08:09:36;99721.94;;;8.92;100.00
46129;BME280;31860;45.186;5.790;2023-12-20T08:12:02;99721.00;;;8.89;100.00
46129;BME280;31860;45.186;5.790;2023-12-20T08:14:27;99724.44;;;8.86;100.00
46129;BME280;31860;45.186;5.790;2023-12-20T08:16:53;99732.25;;;8.86;100.00
46129;BME280;31860;45.186;5.790;2023-12-20T08:19:18;99740.00;;;8.82;100.00
46129;BME280;31860;45.186;5.790;2023-12-20T08:21:44;99737.31;;;8.77;100.00
46129;BME280;31860;45.186;5.790;2023-12-20T08:24:09;99724.31;;;8.79;100.00
46129;BME280;31860;45.186;5.790;2023-12-20T08:26:35;99728.72;;;8.81;100.00
46129;BME280;31860;45.186;5.790;2023-12-20T08:29:00;99739.19;;;8.84;100.00
46129;BME280;31860;45.186;5.790;2023-12-20T08:31:25;99747.06;;;8.89;100.00
46129;BME280;31860;45.186;5.790;2023-12-20T08:33:51;99746.22;;;8.90;100.00
46129;BME280;31860;45.186;5.790;2023-12-20T08:36:19;99742.84;;;8.95;100.00
46129;BME280;31860;45.186;5.790;2023-12-20T08:38:46;99756.78;;;8.97;100.00
46129;BME280;31860;45.186;5.790;2023-12-20T08:41:12;99764.59;;;8.99;100.00
46129;BME280;31860;45.186;5.790;2023-12-20T08:43:37;99763.75;;;9.01;100.00
46129;BME280;31860;45.186;5.790;2023-12-20T08:46:05;99774.22;;;9.03;100.00
46129;BME280;31860;45.186;5.790;2023-12-20T08:48:31;99779.44;;;9.04;100.00
46129;BME280;31860;45.186;5.790;2023-12-20T08:50:56;99777.72;;;9.05;100.00
46129;BME280;31860;45.186;5.790;2023-12-20T08:53:22;99768.22;;;9.07;100.00
46129;BME280;31860;45.186;5.790;2023-12-20T08:55:47;99769.94;;;9.06;100.00
46129;BME280;31860;45.186;5.790;2023-12-20T08:58:13;99769.03;;;9.06;100.00
46129;BME280;31860;45.186;5.790;2023-12-20T09:00:39;99776.78;;;9.01;100.00
46129;BME280;31860;45.186;5.790;2023-12-20T09:03:04;99772.47;;;9.03;100.00
46129;BME280;31860;45.186;5.790;2023-12-20T09:05:30;99771.63;;;9.04;100.00
46129;BME280;31860;45.186;5.790;2023-12-20T09:07:55;99775.03;;;8.99;100.00
46129;BME280;31860;45.186;5.790;2023-12-20T09:10:21;99780.25;;;9.00;100.00
46129;BME280;31860;45.186;5.790;2023-12-20T09:12:53;99782.06;;;9.04;100.00
46129;BME280;31860;45.186;5.790;2023-12-20T09:15:25;99783.84;;;9.08;100.00
46129;BME280;31860;45.186;5.790;2023-12-20T09:17:51;99776.91;;;9.09;100.00
46129;BME280;31860;45.186;5.790;2023-12-20T09:20:16;99771.69;;;9.09;100.00
46129;BME280;31860;45.186;5.790;2023-12-20T09:22:42;99774.28;;;9.07;100.00
46129;BME280;31860;45.186;5.790;2023-12-20T09:25:08;99769.06;;;9.07;100.00
46129;BME280;31860;45.186;5.790;2023-12-20T09:27:33;99776.88;;;9.07;100.00
46129;BME280;31860;45.186;5.790;2023-12-20T09:29:58;99790.78;;;9.06;100.00
46129;BME280;31860;45.186;5.790;2023-12-20T09:32:24;99783.84;;;9.08;100.00
46129;BME280;31860;45.186;5.790;2023-12-20T09:34:49;99779.47;;;9.07;100.00
46129;BME280;31860;45.186;5.790;2023-12-20T09:37:14;99779.56;;;9.10;100.00
46129;BME280;31860;45.186;5.790;2023-12-20T09:39:40;99790.88;;;9.14;100.00
46129;BME280;31860;45.186;5.790;2023-12-20T09:42:06;99789.22;;;9.19;100.00
46129;BME280;31860;45.186;5.790;2023-12-20T09:44:33;99797.13;;;9.23;100.00
46129;BME280;31860;45.186;5.790;2023-12-20T09:47:02;99801.47;;;9.24;100.00
46129;BME280;31860;45.186;5.790;2023-12-20T09:49:28;99793.72;;;9.27;100.00
46129;BME280;31860;45.186;5.790;2023-12-20T09:51:55;99804.19;;;9.32;100.00
46129;BME280;31860;45.186;5.790;2023-12-20T09:54:21;99790.31;;;9.34;100.00
46129;BME280;31860;45.186;5.790;2023-12-20T09:56:47;99789.47;;;9.35;100.00
46129;BME280;31860;45.186;5.790;2023-12-20T09:59:13;99792.94;;;9.34;100.00
46129;BME280;31860;45.186;5.790;2023-12-20T10:01:42;99803.41;;;9.39;100.00
46129;BME280;31860;45.186;5.790;2023-12-20T10:04:09;99791.25;;;9.38;100.00
46129;BME280;31860;45.186;5.790;2023-12-20T10:06:43;99790.44;;;9.42;100.00
46129;BME280;31860;45.186;5.790;2023-12-20T10:09:12;99787.91;;;9.48;100.00
46129;BME280;31860;45.186;5.790;2023-12-20T10:11:38;99781.84;;;9.49;100.00
46129;BME280;31860;45.186;5.790;2023-12-20T10:14:04;99784.50;;;9.52;100.00
46129;BME280;31860;45.186;5.790;2023-12-20T10:16:31;99780.13;;;9.52;100.00
46129;BME280;31860;45.186;5.790;2023-12-20T10:18:58;99774.09;;;9.55;100.00
46129;BME280;31860;45.186;5.790;2023-12-20T10:21:24;99777.53;;;9.54;100.00
46129;BME280;31860;45.186;5.790;2023-12-20T10:23:52;99767.19;;;9.57;100.00
46129;BME280;31860;45.186;5.790;2023-12-20T10:26:26;99767.22;;;9.60;100.00
46129;BME280;31860;45.186;5.790;2023-12-20T10:28:53;99753.31;;;9.61;100.00
46129;BME280;31860;45.186;5.790;2023-12-20T10:31:32;99762.06;;;9.65;100.00
46129;BME280;31860;45.186;5.790;2023-12-20T10:33:59;99755.13;;;9.65;100.00
46129;BME280;31860;45.186;5.790;2023-12-20T10:36:30;99746.44;;;9.68;100.00
46129;BME280;31860;45.186;5.790;2023-12-20T10:38:56;99749.91;;;9.67;100.00
46129;BME280;31860;45.186;5.790;2023-12-20T10:41:30;99747.31;;;9.67;100.00
46129;BME280;31860;45.186;5.790;2023-12-20T10:43:59;99749.03;;;9.65;100.00
46129;BME280;31860;45.186;5.790;2023-12-20T10:46:24;99748.16;;;9.66;100.00
46129;BME280;31860;45.186;5.790;2023-12-20T10:48:55;99743.84;;;9.69;100.00
46129;BME280;31860;45.186;5.790;2023-12-20T10:51:21;99733.47;;;9.72;100.00
46129;BME280;31860;45.186;5.790;2023-12-20T10:53:48;99732.66;;;9.76;100.00
46129;BME280;31860;45.186;5.790;2023-12-20T10:56:16;99736.09;;;9.77;100.00
46129;BME280;31860;45.186;5.790;2023-12-20T10:58:43;99730.06;;;9.79;100.00
46129;BME280;31860;45.186;5.790;2023-12-20T11:01:13;99725.75;;;9.83;100.00
46129;BME280;31860;45.186;5.790;2023-12-20T11:03:45;99725.81;;;9.87;100.00
46129;BME280;31860;45.186;5.790;2023-12-20T11:08:58;99716.28;;;9.91;100.00
46129;BME280;31860;45.186;5.790;2023-12-20T11:11:39;99716.34;;;9.95;100.00
46129;BME280;31860;45.186;5.790;2023-12-20T11:14:15;99718.09;;;9.98;100.00
46129;BME280;31860;45.186;5.790;2023-12-20T11:16:42;99702.44;;;9.98;100.00
46129;BME280;31860;45.186;5.790;2023-12-20T11:19:07;99696.38;;;10.00;100.00
46129;BME280;31860;45.186;5.790;2023-12-20T11:21:33;99706.81;;;10.00;100.00
46129;BME280;31860;45.186;5.790;2023-12-20T11:23:59;99713.81;;;10.04;100.00
46129;BME280;31860;45.186;5.790;2023-12-20T11:26:29;99708.63;;;10.06;100.00
46129;BME280;31860;45.186;5.790;2023-12-20T11:29:30;99711.25;;;10.07;100.00
46129;BME280;31860;45.186;5.790;2023-12-20T11:31:57;99706.03;;;10.07;100.00
46129;BME280;31860;45.186;5.790;2023-12-20T11:34:27;99705.13;;;10.07;100.00
46129;BME280;31860;45.186;5.790;2023-12-20T11:37:00;99702.56;;;10.08;100.00
46129;BME280;31860;45.186;5.790;2023-12-20T11:39:26;99713.94;;;10.10;100.00
46129;BME280;31860;45.186;5.790;2023-12-20T11:41:54;99705.25;;;10.13;100.00
46129;BME280;31860;45.186;5.790;2023-12-20T11:44:19;99693.06;;;10.13;100.00
46129;BME280;31860;45.186;5.790;2023-12-20T11:46:45;99684.38;;;10.14;100.00
46129;BME280;31860;45.186;5.790;2023-12-20T11:49:11;99684.34;;;10.13;100.00
46129;BME280;31860;45.186;5.790;2023-12-20T11:51:40;99679.13;;;10.14;100.00
46129;BME280;31860;45.186;5.790;2023-12-20T11:54:06;99687.84;;;10.12;100.00
46129;BME280;31860;45.186;5.790;2023-12-20T11:56:32;99690.44;;;10.10;100.00
46129;BME280;31860;45.186;5.790;2023-12-20T11:58:57;99687.84;;;10.10;100.00
46129;BME280;31860;45.186;5.790;2023-12-20T12:01:24;99685.13;;;10.07;100.00
46129;BME280;31860;45.186;5.790;2023-12-20T12:04:04;99693.91;;;10.11;100.00
46129;BME280;31860;45.186;5.790;2023-12-20T12:06:30;99686.06;;;10.11;100.00
46129;BME280;31860;45.186;5.790;2023-12-20T12:08:55;99686.06;;;10.11;100.00
46129;BME280;31860;45.186;5.790;2023-12-20T12:11:22;99687.84;;;10.13;100.00
46129;BME280;31860;45.186;5.790;2023-12-20T12:13:48;99686.13;;;10.14;100.00
46129;BME280;31860;45.186;5.790;2023-12-20T12:16:18;99688.75;;;10.18;100.00
46129;BME280;31860;45.186;5.790;2023-12-20T12:18:45;99680.09;;;10.19;100.00
46129;BME280;31860;45.186;5.790;2023-12-20T12:21:11;99680.09;;;10.21;100.00
46129;BME280;31860;45.186;5.790;2023-12-20T12:23:43;99673.97;;;10.20;100.00
46129;BME280;31860;45.186;5.790;2023-12-20T12:26:09;99676.59;;;10.22;100.00
46129;BME280;31860;45.186;5.790;2023-12-20T12:28:34;99680.09;;;10.24;100.00
46129;BME280;31860;45.186;5.790;2023-12-20T12:31:00;99677.50;;;10.24;100.00
46129;BME280;31860;45.186;5.790;2023-12-20T12:33:26;99674.94;;;10.27;100.00
46129;BME280;31860;45.186;5.790;2023-12-20T12:35:52;99670.59;;;10.27;100.00
46129;BME280;31860;45.186;5.790;2023-12-20T12:38:21;99669.72;;;10.28;100.00
46129;BME280;31860;45.186;5.790;2023-12-20T12:40:47;99669.72;;;10.30;100.00
46129;BME280;31860;45.186;5.790;2023-12-20T12:43:12;99668.88;;;10.31;100.00
46129;BME280;31860;45.186;5.790;2023-12-20T12:45:38;99668.00;;;10.32;100.00
46129;BME280;31860;45.186;5.790;2023-12-20T12:48:04;99671.50;;;10.32;100.00
46129;BME280;31860;45.186;5.790;2023-12-20T12:50:30;99675.84;;;10.32;100.00
46129;BME280;31860;45.186;5.790;2023-12-20T12:52:56;99675.00;;;10.33;100.00
46129;BME280;31860;45.186;5.790;2023-12-20T12:55:21;99665.44;;;10.36;100.00
46129;BME280;31860;45.186;5.790;2023-12-20T12:57:47;99669.78;;;10.36;100.00